sensor_id;sensor_type;location;lat;lon;timestamp;pressure;altitude;pressure_sealevel;temperature;humidity
70728;BME280;58314;47.722;17.652;2022-09-27T00:01:17;99203.78;;;12.78;100.00
70728;BME280;58314;47.722;17.652;2022-09-27T00:04:18;99190.75;;;12.75;100.00
70728;BME280;58314;47.722;17.652;2022-09-27T00:07:19;99192.59;;;12.61;100.00
70728;BME280;58314;47.722;17.652;2022-09-27T00:10:19;99190.53;;;12.54;100.00
70728;BME280;58314;47.722;17.652;2022-09-27T00:13:20;99186.66;;;12.47;100.00
70728;BME280;58314;47.722;17.652;2022-09-27T00:16:22;99180.22;;;12.38;100.00
70728;BME280;58314;47.722;17.652;2022-09-27T00:19:23;99173.41;;;12.34;100.00
70728;BME280;58314;47.722;17.652;2022-09-27T00:22:25;99169.19;;;12.31;100.00
70728;BME280;58314;47.722;17.652;2022-09-27T00:25:26;99160.38;;;12.31;100.00
70728;BME280;58314;47.722;17.652;2022-09-27T00:28:27;99151.69;;;12.29;100.00
70728;BME280;58314;47.722;17.652;2022-09-27T00:31:29;99150.56;;;12.20;100.00
70728;BME280;58314;47.722;17.652;2022-09-27T00:34:30;99149.31;;;12.13;100.00
70728;BME280;58314;47.722;17.652;2022-09-27T00:37:30;99144.81;;;12.02;100.00
70728;BME280;58314;47.722;17.652;2022-09-27T00:40:32;99146.00;;;11.98;100.00
70728;BME280;58314;47.722;17.652;2022-09-27T00:43:44;99141.53;;;11.98;100.00
70728;BME280;58314;47.722;17.652;2022-09-27T00:46:48;99138.38;;;11.93;100.00
70728;BME280;58314;47.722;17.652;2022-09-27T00:50:00;99131.56;;;11.89;100.00
70728;BME280;58314;47.722;17.652;2022-09-27T00:53:18;99129.25;;;11.84;100.00
70728;BME280;58314;47.722;17.652;2022-09-27T00:56:25;99130.59;;;11.90;100.00
70728;BME280;58314;47.722;17.652;2022-09-27T00:59:29;99128.16;;;11.87;100.00
70728;BME280;58314;47.722;17.652;2022-09-27T01:02:33;99129.25;;;11.84;100.00
70728;BME280;58314;47.722;17.652;2022-09-27T01:05:35;99127.66;;;11.82;100.00
70728;BME280;58314;47.722;17.652;2022-09-27T01:08:36;99121.41;;;11.83;100.00
70728;BME280;58314;47.722;17.652;2022-09-27T01:18:18;99103.44;;;11.62;100.00
70728;BME280;58314;47.722;17.652;2022-09-27T01:21:43;99092.00;;;11.62;100.00
70728;BME280;58314;47.722;17.652;2022-09-27T01:24:55;99094.78;;;11.47;100.00
70728;BME280;58314;47.722;17.652;2022-09-27T01:28:18;99091.00;;;11.39;100.00
70728;BME280;58314;47.722;17.652;2022-09-27T01:34:45;99082.81;;;11.42;100.00
70728;BME280;58314;47.722;17.652;2022-09-27T01:41:21;99069.50;;;11.30;100.00
70728;BME280;58314;47.722;17.652;2022-09-27T01:47:38;99058.38;;;11.25;100.00
70728;BME280;58314;47.722;17.652;2022-09-27T01:50:45;99049.47;;;11.26;100.00
70728;BME280;58314;47.722;17.652;2022-09-27T01:53:51;99046.00;;;11.13;100.00
70728;BME280;58314;47.722;17.652;2022-09-27T01:56:55;99050.69;;;11.09;100.00
70728;BME280;58314;47.722;17.652;2022-09-27T02:00:01;99044.09;;;11.15;100.00
70728;BME280;58314;47.722;17.652;2022-09-27T02:03:12;99044.84;;;11.17;100.00
70728;BME280;58314;47.722;17.652;2022-09-27T02:06:35;99041.56;;;11.14;100.00
70728;BME280;58314;47.722;17.652;2022-09-27T02:09:49;99027.78;;;11.08;100.00
70728;BME280;58314;47.722;17.652;2022-09-27T02:13:14;99032.25;;;10.95;100.00
70728;BME280;58314;47.722;17.652;2022-09-27T02:16:31;99026.44;;;10.90;100.00
70728;BME280;58314;47.722;17.652;2022-09-27T02:19:47;99021.28;;;10.88;100.00
70728;BME280;58314;47.722;17.652;2022-09-27T02:26:21;99015.22;;;10.86;100.00
70728;BME280;58314;47.722;17.652;2022-09-27T02:29:34;99011.53;;;10.89;100.00
70728;BME280;58314;47.722;17.652;2022-09-27T02:32:37;99012.25;;;10.91;100.00
70728;BME280;58314;47.722;17.652;2022-09-27T02:35:38;99009.72;;;10.89;100.00
70728;BME280;58314;47.722;17.652;2022-09-27T02:38:39;99008.25;;;10.85;100.00
70728;BME280;58314;47.722;17.652;2022-09-27T02:41:40;99009.50;;;10.80;100.00
70728;BME280;58314;47.722;17.652;2022-09-27T02:44:41;99004.22;;;10.80;100.00
70728;BME280;58314;47.722;17.652;2022-09-27T02:51:06;99014.16;;;10.76;100.00
70728;BME280;58314;47.722;17.652;2022-09-27T02:54:18;99016.06;;;10.74;100.00
70728;BME280;58314;47.722;17.652;2022-09-27T03:01:28;99007.72;;;10.67;100.00
70728;BME280;58314;47.722;17.652;2022-09-27T03:04:43;99016.50;;;10.68;100.00
70728;BME280;58314;47.722;17.652;2022-09-27T03:07:48;99020.75;;;10.58;100.00
70728;BME280;58314;47.722;17.652;2022-09-27T03:10:49;99016.19;;;10.60;100.00
70728;BME280;58314;47.722;17.652;2022-09-27T03:13:49;99012.91;;;10.56;100.00
70728;BME280;58314;47.722;17.652;2022-09-27T03:16:50;99020.22;;;10.52;100.00
70728;BME280;58314;47.722;17.652;2022-09-27T03:19:51;99002.72;;;10.50;100.00
70728;BME280;58314;47.722;17.652;2022-09-27T03:22:52;99007.50;;;10.45;100.00
70728;BME280;58314;47.722;17.652;2022-09-27T03:25:52;98997.69;;;10.47;100.00
70728;BME280;58314;47.722;17.652;2022-09-27T03:28:54;98994.91;;;10.48;100.00
70728;BME280;58314;47.722;17.652;2022-09-27T03:31:54;99000.19;;;10.48;100.00
70728;BME280;58314;47.722;17.652;2022-09-27T03:34:55;99004.00;;;10.44;100.00
70728;BME280;58314;47.722;17.652;2022-09-27T03:37:56;99000.72;;;10.41;100.00
70728;BME280;58314;47.722;17.652;2022-09-27T03:40:56;98998.50;;;10.47;100.00
70728;BME280;58314;47.722;17.652;2022-09-27T03:43:58;99002.84;;;10.48;100.00
70728;BME280;58314;47.722;17.652;2022-09-27T03:46:59;98993.22;;;10.60;100.00
70728;BME280;58314;47.722;17.652;2022-09-27T03:50:00;98977.16;;;10.50;100.00
70728;BME280;58314;47.722;17.652;2022-09-27T03:53:00;98968.16;;;10.53;100.00
70728;BME280;58314;47.722;17.652;2022-09-27T03:56:01;98962.34;;;10.48;100.00
70728;BME280;58314;47.722;17.652;2022-09-27T03:59:01;98966.56;;;10.38;100.00
70728;BME280;58314;47.722;17.652;2022-09-27T04:02:03;98959.13;;;10.30;100.00
70728;BME280;58314;47.722;17.652;2022-09-27T04:05:03;98959.53;;;10.24;100.00
70728;BME280;58314;47.722;17.652;2022-09-27T04:08:04;98957.22;;;10.19;100.00
70728;BME280;58314;47.722;17.652;2022-09-27T04:11:10;98939.22;;;10.11;100.00
70728;BME280;58314;47.722;17.652;2022-09-27T04:14:11;98940.41;;;10.07;100.00
70728;BME280;58314;47.722;17.652;2022-09-27T04:17:12;98944.06;;;10.05;100.00
70728;BME280;58314;47.722;17.652;2022-09-27T04:20:13;98941.97;;;10.10;100.00
70728;BME280;58314;47.722;17.652;2022-09-27T04:23:14;98934.59;;;10.02;100.00
70728;BME280;58314;47.722;17.652;2022-09-27T04:26:14;98940.91;;;9.99;100.00
70728;BME280;58314;47.722;17.652;2022-09-27T04:29:15;98950.22;;;10.05;100.00
70728;BME280;58314;47.722;17.652;2022-09-27T04:32:16;98948.72;;;10.01;100.00
70728;BME280;58314;47.722;17.652;2022-09-27T04:35:17;98949.06;;;10.09;100.00
70728;BME280;58314;47.722;17.652;2022-09-27T04:38:57;98934.91;;;10.10;100.00
70728;BME280;58314;47.722;17.652;2022-09-27T04:41:59;98938.78;;;10.05;100.00
70728;BME280;58314;47.722;17.652;2022-09-27T04:45:00;98938.28;;;10.12;100.00
70728;BME280;58314;47.722;17.652;2022-09-27T04:48:01;98937.03;;;10.18;100.00
70728;BME280;58314;47.722;17.652;2022-09-27T04:51:02;98931.72;;;10.18;100.00
70728;BME280;58314;47.722;17.652;2022-09-27T04:54:03;98940.63;;;10.30;100.00
70728;BME280;58314;47.722;17.652;2022-09-27T04:57:04;98934.19;;;10.34;100.00
70728;BME280;58314;47.722;17.652;2022-09-27T05:00:05;98928.19;;;10.32;100.00
70728;BME280;58314;47.722;17.652;2022-09-27T05:03:06;98930.25;;;10.27;100.00
70728;BME280;58314;47.722;17.652;2022-09-27T05:06:06;98929.97;;;10.31;100.00
70728;BME280;58314;47.722;17.652;2022-09-27T05:09:07;98925.22;;;10.36;100.00
70728;BME280;58314;47.722;17.652;2022-09-27T05:12:08;98928.50;;;10.40;100.00
70728;BME280;58314;47.722;17.652;2022-09-27T05:15:09;98924.88;;;10.41;100.00
70728;BME280;58314;47.722;17.652;2022-09-27T05:18:10;98915.16;;;10.54;100.00
70728;BME280;58314;47.722;17.652;2022-09-27T05:21:10;98909.94;;;10.66;100.00
70728;BME280;58314;47.722;17.652;2022-09-27T05:24:12;98907.97;;;10.69;100.00
70728;BME280;58314;47.722;17.652;2022-09-27T05:27:14;98912.69;;;10.77;100.00
70728;BME280;58314;47.722;17.652;2022-09-27T05:30:18;98911.09;;;10.87;100.00
70728;BME280;58314;47.722;17.652;2022-09-27T05:33:18;98917.19;;;11.01;100.00
70728;BME280;58314;47.722;17.652;2022-09-27T05:36:19;98909.78;;;11.06;100.00
70728;BME280;58314;47.722;17.652;2022-09-27T05:39:20;98904.63;;;11.16;100.00
70728;BME280;58314;47.722;17.652;2022-09-27T05:42:20;98909.28;;;11.25;100.00
70728;BME280;58314;47.722;17.652;2022-09-27T05:45:23;98904.34;;;11.31;100.00
70728;BME280;58314;47.722;17.652;2022-09-27T05:48:24;98901.50;;;11.35;100.00
70728;BME280;58314;47.722;17.652;2022-09-27T05:51:24;98892.91;;;11.55;100.00
70728;BME280;58314;47.722;17.652;2022-09-27T05:54:25;98879.94;;;11.63;100.00
70728;BME280;58314;47.722;17.652;2022-09-27T05:57:27;98870.81;;;11.67;100.00
70728;BME280;58314;47.722;17.652;2022-09-27T06:00:28;98866.59;;;11.76;100.00
70728;BME280;58314;47.722;17.652;2022-09-27T06:03:28;98880.97;;;11.85;100.00
70728;BME280;58314;47.722;17.652;2022-09-27T06:06:29;98882.81;;;11.96;100.00
70728;BME280;58314;47.722;17.652;2022-09-27T06:09:29;98881.75;;;11.98;100.00
70728;BME280;58314;47.722;17.652;2022-09-27T06:12:30;98883.09;;;12.04;100.00
70728;BME280;58314;47.722;17.652;2022-09-27T06:15:32;98888.50;;;12.02;100.00
70728;BME280;58314;47.722;17.652;2022-09-27T06:18:33;98878.72;;;12.03;100.00
70728;BME280;58314;47.722;17.652;2022-09-27T06:21:34;98895.78;;;12.12;100.00
70728;BME280;58314;47.722;17.652;2022-09-27T06:24:35;98896.59;;;12.23;100.00
70728;BME280;58314;47.722;17.652;2022-09-27T06:27:35;98890.50;;;12.34;100.00
70728;BME280;58314;47.722;17.652;2022-09-27T06:30:41;98887.09;;;12.55;100.00
70728;BME280;58314;47.722;17.652;2022-09-27T06:33:42;98892.41;;;12.66;100.00
70728;BME280;58314;47.722;17.652;2022-09-27T06:36:42;98877.94;;;12.70;100.00
70728;BME280;58314;47.722;17.652;2022-09-27T06:39:43;98876.13;;;12.82;100.00
70728;BME280;58314;47.722;17.652;2022-09-27T06:42:44;98870.31;;;12.88;100.00
70728;BME280;58314;47.722;17.652;2022-09-27T06:45:45;98876.47;;;12.89;100.00
70728;BME280;58314;47.722;17.652;2022-09-27T06:48:45;98879.94;;;13.00;100.00
70728;BME280;58314;47.722;17.652;2022-09-27T06:51:46;98882.69;;;13.10;100.00
70728;BME280;58314;47.722;17.652;2022-09-27T06:54:47;98875.06;;;13.17;100.00
70728;BME280;58314;47.722;17.652;2022-09-27T06:57:48;98881.69;;;13.23;100.00
70728;BME280;58314;47.722;17.652;2022-09-27T07:01:11;98874.81;;;13.20;100.00
70728;BME280;58314;47.722;17.652;2022-09-27T07:04:12;98869.16;;;13.13;100.00
70728;BME280;58314;47.722;17.652;2022-09-27T07:07:13;98879.44;;;13.07;100.00
70728;BME280;58314;47.722;17.652;2022-09-27T07:10:14;98869.53;;;13.09;100.00
70728;BME280;58314;47.722;17.652;2022-09-27T07:13:17;98867.16;;;13.06;100.00
70728;BME280;58314;47.722;17.652;2022-09-27T07:16:18;98867.63;;;13.11;100.00
70728;BME280;58314;47.722;17.652;2022-09-27T07:19:19;98872.81;;;13.01;100.00
70728;BME280;58314;47.722;17.652;2022-09-27T07:22:20;98876.44;;;13.00;100.00
70728;BME280;58314;47.722;17.652;2022-09-27T07:25:22;98864.38;;;13.07;100.00
70728;BME280;58314;47.722;17.652;2022-09-27T07:28:23;98880.03;;;13.10;100.00
70728;BME280;58314;47.722;17.652;2022-09-27T07:31:23;98870.16;;;13.12;100.00
70728;BME280;58314;47.722;17.652;2022-09-27T07:34:24;98872.78;;;13.35;100.00
70728;BME280;58314;47.722;17.652;2022-09-27T07:37:25;98876.84;;;13.39;100.00
70728;BME280;58314;47.722;17.652;2022-09-27T07:40:25;98866.50;;;13.25;100.00
70728;BME280;58314;47.722;17.652;2022-09-27T07:43:26;98856.13;;;13.22;100.00
70728;BME280;58314;47.722;17.652;2022-09-27T07:46:29;98852.34;;;13.24;100.00
70728;BME280;58314;47.722;17.652;2022-09-27T07:49:30;98863.22;;;13.32;100.00
70728;BME280;58314;47.722;17.652;2022-09-27T07:52:41;98863.97;;;13.23;100.00
70728;BME280;58314;47.722;17.652;2022-09-27T07:55:42;98849.44;;;13.27;100.00
70728;BME280;58314;47.722;17.652;2022-09-27T07:58:43;98850.41;;;13.37;100.00
70728;BME280;58314;47.722;17.652;2022-09-27T08:01:44;98845.69;;;13.41;100.00
70728;BME280;58314;47.722;17.652;2022-09-27T08:04:45;98850.97;;;13.52;100.00
70728;BME280;58314;47.722;17.652;2022-09-27T08:07:46;98838.38;;;13.54;100.00
70728;BME280;58314;47.722;17.652;2022-09-27T08:10:47;98848.03;;;13.55;100.00
70728;BME280;58314;47.722;17.652;2022-09-27T08:13:47;98838.97;;;13.58;100.00
70728;BME280;58314;47.722;17.652;2022-09-27T08:16:51;98836.22;;;13.69;100.00
70728;BME280;58314;47.722;17.652;2022-09-27T08:19:52;98839.63;;;13.71;100.00
70728;BME280;58314;47.722;17.652;2022-09-27T08:22:53;98840.59;;;13.70;100.00
70728;BME280;58314;47.722;17.652;2022-09-27T08:25:55;98838.63;;;13.93;100.00
70728;BME280;58314;47.722;17.652;2022-09-27T08:28:57;98847.41;;;13.84;100.00
70728;BME280;58314;47.722;17.652;2022-09-27T08:31:58;98849.53;;;13.69;100.00
70728;BME280;58314;47.722;17.652;2022-09-27T08:34:59;98851.56;;;13.77;100.00
70728;BME280;58314;47.722;17.652;2022-09-27T08:38:01;98852.25;;;13.79;100.00
70728;BME280;58314;47.722;17.652;2022-09-27T08:41:10;98846.94;;;13.79;100.00
70728;BME280;58314;47.722;17.652;2022-09-27T08:44:14;98840.09;;;13.77;100.00
70728;BME280;58314;47.722;17.652;2022-09-27T08:56:40;98849.47;;;14.02;100.00
70728;BME280;58314;47.722;17.652;2022-09-27T08:59:47;98847.13;;;14.08;100.00
70728;BME280;58314;47.722;17.652;2022-09-27T09:02:50;98850.28;;;14.02;100.00
70728;BME280;58314;47.722;17.652;2022-09-27T09:12:33;98840.16;;;14.17;100.00
70728;BME280;58314;47.722;17.652;2022-09-27T09:15:58;98837.28;;;14.30;100.00
70728;BME280;58314;47.722;17.652;2022-09-27T09:25:48;98820.66;;;14.38;100.00
70728;BME280;58314;47.722;17.652;2022-09-27T09:35:40;98824.34;;;14.56;100.00
70728;BME280;58314;47.722;17.652;2022-09-27T09:38:46;98827.81;;;14.47;100.00
70728;BME280;58314;47.722;17.652;2022-09-27T09:45:25;98826.19;;;14.56;100.00
70728;BME280;58314;47.722;17.652;2022-09-27T09:48:42;98820.28;;;14.52;100.00
70728;BME280;58314;47.722;17.652;2022-09-27T09:51:58;98824.34;;;14.56;100.00
70728;BME280;58314;47.722;17.652;2022-09-27T09:55:06;98824.56;;;14.64;100.00
70728;BME280;58314;47.722;17.652;2022-09-27T09:58:33;98824.72;;;14.73;100.00
70728;BME280;58314;47.722;17.652;2022-09-27T10:01:44;98824.59;;;14.84;100.00
70728;BME280;58314;47.722;17.652;2022-09-27T10:04:45;98823.22;;;14.99;100.00
70728;BME280;58314;47.722;17.652;2022-09-27T10:07:47;98825.63;;;15.02;100.00
70728;BME280;58314;47.722;17.652;2022-09-27T10:10:50;98816.09;;;15.10;100.00
70728;BME280;58314;47.722;17.652;2022-09-27T10:13:51;98810.50;;;15.22;100.00
70728;BME280;58314;47.722;17.652;2022-09-27T10:16:56;98800.81;;;15.31;100.00
70728;BME280;58314;47.722;17.652;2022-09-27T10:19:58;98801.38;;;15.35;100.00
70728;BME280;58314;47.722;17.652;2022-09-27T10:23:20;98799.69;;;15.34;100.00
70728;BME280;58314;47.722;17.652;2022-09-27T10:26:21;98799.13;;;15.20;100.00
70728;BME280;58314;47.722;17.652;2022-09-27T10:29:30;98807.25;;;14.99;100.00
70728;BME280;58314;47.722;17.652;2022-09-27T10:32:33;98793.50;;;15.04;100.00
70728;BME280;58314;47.722;17.652;2022-09-27T10:35:46;98793.94;;;15.09;100.00
70728;BME280;58314;47.722;17.652;2022-09-27T10:38:54;98800.25;;;14.98;100.00
70728;BME280;58314;47.722;17.652;2022-09-27T10:41:55;98815.59;;;14.75;100.00
70728;BME280;58314;47.722;17.652;2022-09-27T10:44:56;98805.59;;;14.58;100.00
70728;BME280;58314;47.722;17.652;2022-09-27T10:48:00;98810.03;;;14.47;100.00
70728;BME280;58314;47.722;17.652;2022-09-27T10:51:04;98811.81;;;14.37;100.00
70728;BME280;58314;47.722;17.652;2022-09-27T10:54:20;98805.47;;;14.28;100.00
70728;BME280;58314;47.722;17.652;2022-09-27T10:57:23;98812.19;;;14.23;100.00
70728;BME280;58314;47.722;17.652;2022-09-27T11:03:31;98806.09;;;13.59;100.00
70728;BME280;58314;47.722;17.652;2022-09-27T11:06:32;98777.41;;;13.53;100.00
70728;BME280;58314;47.722;17.652;2022-09-27T11:13:05;98794.38;;;13.41;100.00
70728;BME280;58314;47.722;17.652;2022-09-27T11:27:15;98806.84;;;13.17;100.00
70728;BME280;58314;47.722;17.652;2022-09-27T11:30:15;98805.44;;;13.13;100.00
70728;BME280;58314;47.722;17.652;2022-09-27T11:33:39;98819.72;;;13.01;100.00
70728;BME280;58314;47.722;17.652;2022-09-27T11:46:31;98834.28;;;12.18;100.00
70728;BME280;58314;47.722;17.652;2022-09-27T11:49:42;98836.34;;;12.37;100.00
70728;BME280;58314;47.722;17.652;2022-09-27T11:56:26;98836.53;;;12.90;100.00
70728;BME280;58314;47.722;17.652;2022-09-27T12:09:49;98818.38;;;14.02;100.00
70728;BME280;58314;47.722;17.652;2022-09-27T12:12:55;98819.66;;;14.29;100.00
70728;BME280;58314;47.722;17.652;2022-09-27T12:15:57;98813.25;;;14.72;100.00
70728;BME280;58314;47.722;17.652;2022-09-27T12:19:00;98826.25;;;14.65;100.00
70728;BME280;58314;47.722;17.652;2022-09-27T12:22:09;98833.16;;;14.87;100.00
70728;BME280;58314;47.722;17.652;2022-09-27T12:25:16;98835.47;;;14.61;100.00
70728;BME280;58314;47.722;17.652;2022-09-27T12:28:50;98844.22;;;14.52;100.00
70728;BME280;58314;47.722;17.652;2022-09-27T12:32:16;98846.16;;;14.71;100.00
70728;BME280;58314;47.722;17.652;2022-09-27T12:35:21;98850.28;;;14.95;100.00
70728;BME280;58314;47.722;17.652;2022-09-27T12:41:25;98853.19;;;14.51;100.00
70728;BME280;58314;47.722;17.652;2022-09-27T12:44:36;98848.28;;;14.46;100.00
70728;BME280;58314;47.722;17.652;2022-09-27T12:51:11;98864.97;;;13.75;100.00
70728;BME280;58314;47.722;17.652;2022-09-27T13:14:14;98888.91;;;13.43;100.00
70728;BME280;58314;47.722;17.652;2022-09-27T13:20:45;98894.44;;;13.51;100.00
70728;BME280;58314;47.722;17.652;2022-09-27T13:23:49;98903.69;;;13.57;100.00
70728;BME280;58314;47.722;17.652;2022-09-27T13:26:50;98900.44;;;13.65;100.00
70728;BME280;58314;47.722;17.652;2022-09-27T13:30:41;98898.38;;;13.89;100.00
70728;BME280;58314;47.722;17.652;2022-09-27T13:39:17;98892.63;;;14.36;100.00
70728;BME280;58314;47.722;17.652;2022-09-27T13:42:33;98889.91;;;14.26;100.00
70728;BME280;58314;47.722;17.652;2022-09-27T13:45:51;98894.19;;;14.18;100.00
70728;BME280;58314;47.722;17.652;2022-09-27T13:55:47;98890.66;;;14.59;100.00
70728;BME280;58314;47.722;17.652;2022-09-27T13:58:53;98895.63;;;14.53;100.00
70728;BME280;58314;47.722;17.652;2022-09-27T14:02:18;98900.19;;;14.41;100.00
70728;BME280;58314;47.722;17.652;2022-09-27T14:05:27;98905.44;;;14.73;100.00
70728;BME280;58314;47.722;17.652;2022-09-27T14:08:39;98897.41;;;14.63;100.00
70728;BME280;58314;47.722;17.652;2022-09-27T14:11:48;98908.72;;;14.96;100.00
70728;BME280;58314;47.722;17.652;2022-09-27T14:14:53;98900.19;;;15.02;100.00
70728;BME280;58314;47.722;17.652;2022-09-27T14:17:56;98899.97;;;15.25;100.00
70728;BME280;58314;47.722;17.652;2022-09-27T14:24:23;98904.56;;;15.03;100.00
70728;BME280;58314;47.722;17.652;2022-09-27T14:27:27;98903.91;;;14.80;100.00
70728;BME280;58314;47.722;17.652;2022-09-27T14:30:29;98905.44;;;14.73;100.00
70728;BME280;58314;47.722;17.652;2022-09-27T14:33:32;98914.56;;;14.80;100.00
70728;BME280;58314;47.722;17.652;2022-09-27T14:36:33;98912.84;;;14.48;100.00
70728;BME280;58314;47.722;17.652;2022-09-27T14:40:01;98912.47;;;14.53;100.00
70728;BME280;58314;47.722;17.652;2022-09-27T14:43:05;98903.63;;;14.53;100.00
70728;BME280;58314;47.722;17.652;2022-09-27T14:46:06;98910.44;;;14.45;100.00
70728;BME280;58314;47.722;17.652;2022-09-27T14:49:23;98906.47;;;14.09;100.00
70728;BME280;58314;47.722;17.652;2022-09-27T14:52:30;98899.47;;;14.29;100.00
70728;BME280;58314;47.722;17.652;2022-09-27T14:55:32;98907.75;;;14.36;100.00
70728;BME280;58314;47.722;17.652;2022-09-27T14:58:34;98907.50;;;14.18;100.00
70728;BME280;58314;47.722;17.652;2022-09-27T15:01:35;98904.63;;;14.09;100.00
70728;BME280;58314;47.722;17.652;2022-09-27T15:04:43;98908.88;;;14.12;100.00
70728;BME280;58314;47.722;17.652;2022-09-27T15:07:46;98901.34;;;13.96;100.00
70728;BME280;58314;47.722;17.652;2022-09-27T15:10:47;98911.75;;;13.67;100.00
70728;BME280;58314;47.722;17.652;2022-09-27T15:13:50;98917.19;;;13.65;100.00
70728;BME280;58314;47.722;17.652;2022-09-27T15:16:53;98926.22;;;13.74;100.00
70728;BME280;58314;47.722;17.652;2022-09-27T15:20:27;98925.31;;;13.64;100.00
70728;BME280;58314;47.722;17.652;2022-09-27T15:23:34;98919.16;;;13.63;100.00
70728;BME280;58314;47.722;17.652;2022-09-27T15:26:41;98919.97;;;13.64;100.00
70728;BME280;58314;47.722;17.652;2022-09-27T15:29:52;98933.66;;;13.59;100.00
70728;BME280;58314;47.722;17.652;2022-09-27T15:32:54;98936.88;;;13.74;100.00
70728;BME280;58314;47.722;17.652;2022-09-27T15:35:58;98948.59;;;13.71;100.00
70728;BME280;58314;47.722;17.652;2022-09-27T15:39:07;98938.88;;;13.49;100.00
70728;BME280;58314;47.722;17.652;2022-09-27T15:42:10;98947.84;;;13.26;100.00
70728;BME280;58314;47.722;17.652;2022-09-27T15:45:34;98944.63;;;13.11;100.00
70728;BME280;58314;47.722;17.652;2022-09-27T15:48:35;98939.94;;;12.92;100.00
70728;BME280;58314;47.722;17.652;2022-09-27T15:51:48;98951.63;;;12.89;100.00
70728;BME280;58314;47.722;17.652;2022-09-27T15:54:49;98954.53;;;12.75;100.00
70728;BME280;58314;47.722;17.652;2022-09-27T15:57:58;98952.00;;;12.85;100.00
70728;BME280;58314;47.722;17.652;2022-09-27T16:01:01;98957.06;;;12.76;100.00
70728;BME280;58314;47.722;17.652;2022-09-27T16:04:02;98961.28;;;12.68;100.00
70728;BME280;58314;47.722;17.652;2022-09-27T16:07:03;98969.25;;;12.68;100.00
70728;BME280;58314;47.722;17.652;2022-09-27T16:10:20;98971.78;;;12.69;100.00
70728;BME280;58314;47.722;17.652;2022-09-27T16:13:25;98972.03;;;12.66;100.00
70728;BME280;58314;47.722;17.652;2022-09-27T16:16:27;98970.59;;;12.62;100.00
70728;BME280;58314;47.722;17.652;2022-09-27T16:19:27;98961.53;;;12.65;100.00
70728;BME280;58314;47.722;17.652;2022-09-27T16:22:28;98952.00;;;12.51;100.00
70728;BME280;58314;47.722;17.652;2022-09-27T16:25:28;98953.91;;;12.49;100.00
70728;BME280;58314;47.722;17.652;2022-09-27T16:28:30;98950.06;;;12.41;100.00
70728;BME280;58314;47.722;17.652;2022-09-27T16:31:31;98953.78;;;12.28;100.00
70728;BME280;58314;47.722;17.652;2022-09-27T16:34:32;98957.38;;;12.27;100.00
70728;BME280;58314;47.722;17.652;2022-09-27T16:37:33;98952.56;;;12.20;100.00
70728;BME280;58314;47.722;17.652;2022-09-27T16:40:35;98956.50;;;12.15;100.00
70728;BME280;58314;47.722;17.652;2022-09-27T16:43:36;98957.72;;;12.22;100.00
70728;BME280;58314;47.722;17.652;2022-09-27T16:46:40;98959.50;;;12.10;100.00
70728;BME280;58314;47.722;17.652;2022-09-27T16:49:41;98960.34;;;12.11;100.00
70728;BME280;58314;47.722;17.652;2022-09-27T16:53:00;98969.25;;;12.10;100.00
70728;BME280;58314;47.722;17.652;2022-09-27T16:56:01;98971.50;;;12.03;100.00
70728;BME280;58314;47.722;17.652;2022-09-27T16:59:02;98979.13;;;12.08;100.00
70728;BME280;58314;47.722;17.652;2022-09-27T17:02:04;98984.00;;;11.90;100.00
70728;BME280;58314;47.722;17.652;2022-09-27T17:05:05;98982.00;;;11.80;100.00
70728;BME280;58314;47.722;17.652;2022-09-27T17:08:11;98996.66;;;11.73;100.00
70728;BME280;58314;47.722;17.652;2022-09-27T17:11:13;98999.84;;;12.02;100.00
70728;BME280;58314;47.722;17.652;2022-09-27T17:14:15;98999.00;;;11.78;100.00
70728;BME280;58314;47.722;17.652;2022-09-27T17:17:16;99000.44;;;11.58;100.00
70728;BME280;58314;47.722;17.652;2022-09-27T17:20:17;99003.59;;;11.63;100.00
70728;BME280;58314;47.722;17.652;2022-09-27T17:23:17;98995.81;;;11.48;100.00
70728;BME280;58314;47.722;17.652;2022-09-27T17:26:20;99005.97;;;11.55;100.00
70728;BME280;58314;47.722;17.652;2022-09-27T17:29:21;99009.69;;;11.52;100.00
70728;BME280;58314;47.722;17.652;2022-09-27T17:32:21;99012.38;;;11.39;100.00
70728;BME280;58314;47.722;17.652;2022-09-27T17:35:24;99020.94;;;11.43;100.00
70728;BME280;58314;47.722;17.652;2022-09-27T17:38:28;99019.81;;;11.34;100.00
70728;BME280;58314;47.722;17.652;2022-09-27T17:41:29;99014.94;;;11.41;100.00
70728;BME280;58314;47.722;17.652;2022-09-27T17:44:29;99019.59;;;11.37;100.00
70728;BME280;58314;47.722;17.652;2022-09-27T17:47:30;99014.50;;;11.34;100.00
70728;BME280;58314;47.722;17.652;2022-09-27T17:50:50;99029.94;;;11.40;100.00
70728;BME280;58314;47.722;17.652;2022-09-27T17:53:51;99029.00;;;11.41;100.00
70728;BME280;58314;47.722;17.652;2022-09-27T17:56:53;99038.19;;;11.48;100.00
70728;BME280;58314;47.722;17.652;2022-09-27T17:59:55;99044.84;;;11.54;100.00
70728;BME280;58314;47.722;17.652;2022-09-27T18:02:57;99051.91;;;11.42;100.00
70728;BME280;58314;47.722;17.652;2022-09-27T18:05:57;99050.41;;;11.38;100.00
70728;BME280;58314;47.722;17.652;2022-09-27T18:08:58;99047.84;;;11.49;100.00
70728;BME280;58314;47.722;17.652;2022-09-27T18:11:59;99047.13;;;11.47;100.00
70728;BME280;58314;47.722;17.652;2022-09-27T18:15:01;99047.22;;;11.46;100.00
70728;BME280;58314;47.722;17.652;2022-09-27T18:18:02;99059.50;;;11.47;100.00
70728;BME280;58314;47.722;17.652;2022-09-27T18:21:07;99062.94;;;11.23;100.00